createdAt,value
2024-04-23T00:00:04.108Z,27.30
2024-04-23T00:10:06.726Z,24.50
2024-04-23T00:20:09.256Z,21.30
2024-04-23T00:30:11.839Z,20.00
2024-04-23T00:40:14.429Z,21.00
2024-04-23T00:50:17.058Z,19.70
2024-04-23T01:00:19.652Z,21.10
2024-04-23T01:10:23.386Z,24.30
2024-04-23T01:20:25.953Z,25.40
2024-04-23T01:30:28.488Z,20.10
2024-04-23T01:40:31.075Z,18.40
2024-04-23T01:50:33.633Z,17.60
2024-04-23T02:00:36.179Z,17.00
2024-04-23T02:10:38.834Z,16.60
2024-04-23T02:20:41.434Z,16.10
2024-04-23T02:30:44.042Z,15.60
2024-04-23T02:40:46.722Z,15.50
2024-04-23T02:50:49.341Z,15.40
2024-04-23T03:00:52.035Z,15.00
2024-04-23T03:10:54.838Z,14.80
2024-04-23T03:20:59.313Z,14.50
2024-04-23T03:31:01.866Z,14.20
2024-04-23T03:41:04.466Z,13.90
2024-04-23T03:51:26.833Z,13.60
2024-04-23T04:01:29.424Z,13.50
2024-04-23T04:11:32.268Z,13.60
2024-04-23T04:21:35.046Z,13.60
2024-04-23T04:31:37.683Z,13.40
2024-04-23T04:41:40.328Z,13.50
2024-04-23T04:51:42.888Z,13.40
2024-04-23T05:01:45.515Z,13.60
2024-04-23T05:11:48.310Z,13.30
2024-04-23T05:21:50.979Z,13.20
2024-04-23T05:31:53.556Z,13.20
2024-04-23T05:41:58.016Z,13.10
2024-04-23T05:52:01.915Z,13.10
2024-04-23T06:02:06.125Z,13.20
2024-04-23T06:12:08.902Z,13.10
2024-04-23T06:22:11.511Z,13.00
2024-04-23T06:32:14.129Z,13.00
2024-04-23T06:42:16.770Z,12.80
2024-04-23T06:52:19.439Z,12.50
2024-04-23T07:02:22.393Z,12.40
2024-04-23T07:12:25.122Z,12.10
2024-04-23T07:22:27.727Z,11.90
2024-04-23T07:32:30.417Z,11.70
2024-04-23T07:42:33.091Z,11.50
2024-04-23T07:52:35.825Z,11.50
2024-04-23T08:02:38.453Z,11.30
2024-04-23T08:12:41.360Z,11.10
2024-04-23T08:22:43.893Z,10.70
2024-04-23T08:32:46.580Z,10.60
2024-04-23T08:42:49.250Z,10.30
2024-04-23T08:52:51.874Z,10.00
2024-04-23T09:02:54.497Z,10.00
2024-04-23T09:12:57.113Z,9.70
2024-04-23T09:22:59.688Z,9.40
2024-04-23T09:33:02.469Z,9.60
2024-04-23T09:43:05.108Z,9.50
2024-04-23T09:53:07.796Z,9.30
2024-04-23T10:03:11.984Z,9.30
2024-04-23T10:13:16.879Z,9.30
2024-04-23T10:23:19.616Z,9.30
2024-04-23T10:33:22.437Z,9.20
2024-04-23T10:43:27.579Z,9.00
2024-04-23T10:53:30.190Z,9.00
2024-04-23T11:03:33.001Z,8.80
2024-04-23T11:13:35.924Z,8.50
2024-04-23T11:23:38.566Z,8.30
2024-04-23T11:33:41.241Z,8.00
2024-04-23T11:43:43.870Z,7.90
2024-04-23T11:53:46.419Z,8.00
2024-04-23T12:03:51.255Z,8.10
2024-04-23T12:13:55.110Z,8.10
2024-04-23T12:23:59.568Z,7.90
2024-04-23T12:34:02.430Z,7.80
2024-04-23T12:45:02.083Z,7.70
2024-04-23T12:54:38.988Z,7.60
2024-04-23T13:04:42.760Z,7.40
2024-04-23T13:14:45.353Z,7.40
2024-04-23T13:24:47.972Z,7.60
2024-04-23T13:34:50.629Z,7.90
2024-04-23T13:44:53.252Z,8.30
2024-04-23T13:54:55.814Z,8.50
2024-04-23T14:04:58.447Z,8.60
2024-04-23T14:15:01.129Z,8.60
2024-04-23T14:25:03.757Z,8.80
2024-04-23T14:35:06.391Z,9.00
2024-04-23T14:45:09.058Z,9.40
2024-04-23T14:55:11.630Z,9.70
2024-04-23T15:05:14.256Z,10.10
2024-04-23T15:15:16.880Z,10.80
2024-04-23T15:25:20.816Z,11.60
2024-04-23T15:35:23.449Z,12.20
2024-04-23T15:45:26.001Z,12.90
2024-04-23T15:55:28.564Z,13.70
2024-04-23T16:05:31.169Z,15.20
2024-04-23T16:15:33.755Z,16.00
2024-04-23T16:25:36.353Z,16.50
2024-04-23T16:35:38.934Z,17.30
2024-04-23T16:45:41.512Z,18.10
2024-04-23T16:55:44.148Z,18.70
2024-04-23T17:05:46.722Z,19.20
2024-04-23T17:15:49.340Z,19.80
2024-04-23T17:25:51.910Z,20.70
2024-04-23T17:35:54.531Z,21.30
2024-04-23T17:45:57.144Z,21.30
2024-04-23T17:55:59.827Z,22.00
2024-04-23T18:06:02.512Z,22.60
2024-04-23T18:16:05.135Z,23.30
2024-04-23T18:26:07.748Z,23.60
2024-04-23T18:36:10.305Z,24.20
2024-04-23T18:46:13.047Z,23.40
2024-04-23T18:56:15.713Z,23.10
2024-04-23T19:06:18.453Z,23.40
2024-04-23T19:16:21.378Z,24.00
2024-04-23T19:26:23.932Z,23.30
2024-04-23T19:36:26.564Z,24.00
2024-04-23T19:46:29.163Z,24.20
2024-04-23T19:56:31.718Z,24.60
2024-04-23T20:06:34.281Z,25.60
2024-04-23T20:16:36.992Z,25.60
2024-04-23T20:26:39.645Z,26.00
2024-04-23T20:36:43.383Z,26.00
2024-04-23T20:46:45.958Z,26.10
2024-04-23T20:56:48.540Z,25.90
2024-04-23T21:06:51.183Z,27.10
2024-04-23T21:16:53.925Z,27.30
2024-04-23T21:26:56.527Z,27.10
2024-04-23T21:36:59.119Z,27.30
2024-04-23T21:47:01.727Z,28.60
2024-04-23T21:57:04.336Z,29.90
2024-04-23T22:07:06.924Z,31.30
2024-04-23T22:17:09.642Z,33.00
2024-04-23T22:27:12.256Z,34.10
2024-04-23T22:37:14.790Z,39.70
2024-04-23T22:47:17.513Z,45.40
2024-04-23T22:57:20.143Z,49.60
2024-04-23T23:07:22.690Z,47.10
2024-04-23T23:17:25.375Z,48.80
2024-04-23T23:27:28.005Z,50.20
2024-04-23T23:37:30.601Z,47.70
2024-04-23T23:47:33.297Z,43.20
2024-04-23T23:57:35.912Z,36.30
